Celebrity Infinity — 9HJD9 — position and weather

sailwx.info

Track history (hours):
 
Tides and Currents Weather Stations Pressure Air Temp Water Temp Dewpoint Dewpoint Depression Visibility Wind Speed Wind Dir Waves Ship Positions

Celebrity Infinity

Last reported at 2017-Aug-20 20:30 UTC. Time now 2017-Aug-20 20:43 UTC.
Position N 49°17' W 123°07'.

Length 294 m; draft 8.3 m.

Type: Ship. MMSI: 249048000.

Date/timePositionNaut miles runAvg speedWind from/ knotsBaromVisibWave heightAir tempDewpointWater temp
2017-Aug-20 20:30N 49°17' W 123°07'0 0.0
2017-Aug-20 19:59N 49°17' W 123°07'0 0.0
2017-Aug-20 19:26N 49°17' W 123°07'0 0.0
2017-Aug-20 18:59N 49°17' W 123°07'0 0.0
2017-Aug-20 18:26N 49°17' W 123°07'0 0.0
2017-Aug-20 17:56N 49°17' W 123°07'0 0.0
2017-Aug-20 17:25N 49°17' W 123°07'0 0.0
2017-Aug-20 16:55N 49°17' W 123°07'0 0.0
2017-Aug-20 16:28N 49°17' W 123°07'0 0.0
2017-Aug-20 15:52N 49°17' W 123°07'0 0.0
2017-Aug-20 15:31N 49°17' W 123°07'0 0.0
2017-Aug-20 15:00N 49°17' W 123°07'0 0.0
2017-Aug-20 14:30N 49°17' W 123°07'0 0.0
2017-Aug-20 14:00N 49°17' W 123°07'0 0.9
2017-Aug-20 13:30N 49°18' W 123°06'4 8.4
2017-Aug-20 13:00N 49°19' W 123°12'4232.6
2017-Aug-20 13:00N 49°18' W 123°18'4 7.5 130 / 121015.0 5.4 14.0
2017-Aug-20 12:30N 49°19' W 123°23'714.6
2017-Aug-20 12:00N 49°20' W 123°34'815.0
2017-Aug-20 11:30N 49°21' W 123°46'714.5
2017-Aug-20 11:00N 49°22' W 123°57'714.9
2017-Aug-20 10:30N 49°24' W 124°08'815.3
2017-Aug-20 10:00N 49°26' W 124°19'12726.3
2017-Aug-20 10:00N 49°18' W 124°06'1940.2 300 / 131018.0 15.0 11.0
2017-Aug-20 09:30N 49°30' W 124°29'917.6
2017-Aug-20 09:00N 49°37' W 124°38'917.9
2017-Aug-20 08:30N 49°44' W 124°48'917.7
2017-Aug-20 08:01N 49°50' W 124°57'10583.1
2017-Aug-20 08:00N 49°42' W 124°48'1837.1 300 / 131018.0 15.0 11.0
2017-Aug-20 07:30N 49°56' W 125°06'815.1
2017-Aug-20 07:00N 50°02' W 125°13'713.3
2017-Aug-20 06:30N 50°07' W 125°19'612.2
2017-Aug-20 06:00N 50°13' W 125°23'7793.2
2017-Aug-20 06:00N 50°06' W 125°18'1327.5 300 / 131018.0 15.0 11.0
2017-Aug-20 05:30N 50°19' W 125°25'814.5
2017-Aug-20 04:58N 50°22' W 125°36'9 9.2
2017-Aug-20 04:00N 50°18' W 125°48'2628.3 300 / 131018.0 15.0 11.0
2017-Aug-20 03:04N 50°30' W 126°25'343.9
2017-Aug-20 03:00N 50°30' W 126°30'160.8 210 / 51019.0 2.2 14.0
2017-Aug-20 02:58N 50°30' W 126°28'1413.7
2017-Aug-20 01:58N 50°37' W 126°46'918.0
2017-Aug-20 01:30N 50°42' W 126°57'918.8
2017-Aug-20 01:00N 50°45' W 127°11'1020.0
2017-Aug-20 00:30N 50°49' W 127°25'1019.4
2017-Aug-20 00:00N 50°54' W 127°38'815.9
2017-Aug-19 23:30N 50°59' W 127°48'713.7
2017-Aug-19 23:00N 51°03' W 127°57'4261.5
2017-Aug-19 23:00N 51°00' W 128°00'918.0 180 / 91020.0 12.0 10.0
2017-Aug-19 22:30N 51°08' W 128°07'714.8
2017-Aug-19 22:00N 51°12' W 128°16'5303.9
2017-Aug-19 22:00N 51°12' W 128°24'5 9.9 180 / 91020.0 12.0 10.0
2017-Aug-19 21:30N 51°17' W 128°26'815.2
2017-Aug-19 21:00N 51°21' W 128°36'815.1
2017-Aug-19 20:30N 51°25' W 128°46'815.0
2017-Aug-19 20:00N 51°29' W 128°56'815.8
2017-Aug-19 19:30N 51°34' W 129°07'815.9
2017-Aug-19 19:00N 51°39' W 129°17'816.3
2017-Aug-19 18:30N 51°43' W 129°28'815.8
2017-Aug-19 17:59N 51°50' W 129°34'1110.8
2017-Aug-19 17:00N 52°00' W 129°42'9218.3 220 / 151019.0 15.0 15.0
2017-Aug-19 12:00N 53°24' W 130°42'4916.4 220 / 81017.0 5.4 13.0
2017-Aug-19 09:00N 54°12' W 131°00'6911.5 260 / 161016.0 15.0 10.0
2017-Aug-19 03:00N 55°18' W 131°36'0 0.0 090 / 51014.0 5.4 16.0
2017-Aug-18 22:00N 55°18' W 131°36'8512.2 150 / 101013.0 18.0 13.0
2017-Aug-18 15:00N 56°18' W 133°24'37 9.3 220 / 261007.0 5.4 12.0
2017-Aug-18 11:00N 56°24' W 134°30'1818.0 140 / 291002.0 14.0 10.0
2017-Aug-18 10:00N 56°42' W 134°30'4321.3 140 / 291002.0 14.0 10.0
2017-Aug-18 08:00N 57°18' W 133°48'57 8.2 150 / 81000.0 5.4
2017-Aug-18 01:00N 58°12' W 134°24'6 6.0 150 / 81000.0 5.4
2017-Aug-18 00:00N 58°18' W 134°24'6 3.0 180 / 81001.0 2.2 14.0 11.0
2017-Aug-17 22:00N 58°12' W 134°24'6 2.0 210 / 91002.0 14.0 11.0
2017-Aug-17 19:00N 58°18' W 134°24'6 2.0 130 / 81004.0 15.0 11.0
2017-Aug-17 16:00N 58°12' W 134°24'31 5.4 130 / 151005.0 2.2 11.0
2017-Aug-17 10:10N 58°12' W 135°24'617.1
2017-Aug-17 09:49N 58°15' W 135°33'617.5
2017-Aug-17 09:30N 58°17' W 135°42'816.7
2017-Aug-17 09:00N 58°19' W 135°58'815.2
2017-Aug-17 08:30N 58°19' W 136°12'2516.8
2017-Aug-17 07:00N 58°06' W 136°54'4715.8 240 / 171005.0 5.4 11.0
2017-Aug-17 04:00N 58°30' W 138°12'5614.1 240 / 171005.0 5.4 11.0
2017-Aug-17 00:00N 59°06' W 139°36'3115.7 100 / 91004.0 14.0 12.0
2017-Aug-16 22:00N 59°36' W 139°54'22 5.4 100 / 91004.0 14.0 12.0
2017-Aug-16 18:00N 59°54' W 139°30'4816.0 360 / 51002.0 11.0 10.0
2017-Aug-16 15:00N 59°06' W 139°30'5814.6 260 / 81000.0 5.4 12.0
2017-Aug-16 11:00N 58°24' W 138°12'2423.9 130 / 20996.0 15.0 14.0
2017-Aug-16 10:00N 58°06' W 137°42'7719.2 130 / 20996.0 15.0 14.0
2017-Aug-16 06:00N 57°06' W 136°12'29 7.3 130 / 20996.0 15.0 14.0
2017-Aug-16 02:00N 57°06' W 135°18'0 0.0 140 / 10996.0 2.2 11.0
2017-Aug-15 23:00N 57°06' W 135°18'9 1.5 360 / 6999.0 14.0 16.0
2017-Aug-15 17:00N 57°00' W 135°30'8113.6 130 / 111003.0 5.4 14.0
2017-Aug-15 11:00N 55°42' W 134°48'3819.2 110 / 81012.0 14.0 2.0
2017-Aug-15 09:00N 55°12' W 134°06'3919.6 110 / 81012.0 14.0 2.0
2017-Aug-15 07:00N 54°48' W 133°12'14616.3 110 / 81012.0 14.0 2.0
2017-Aug-14 22:00N 53°00' W 130°24'6217.9 110 / 81012.0 14.0 2.0
2017-Aug-14 18:30N 52°03' W 129°43'1118.5
2017-Aug-14 17:56N 51°53' W 129°36'818.3
2017-Aug-14 17:30N 51°46' W 129°30'917.9
2017-Aug-14 17:00N 51°40' W 129°20'918.6
2017-Aug-14 16:30N 51°35' W 129°08'918.6
2017-Aug-14 16:00N 51°29' W 128°56'918.4
2017-Aug-14 15:30N 51°24' W 128°43'918.1
2017-Aug-14 15:00N 51°19' W 128°32'918.4
2017-Aug-14 14:30N 51°14' W 128°20'918.5
2017-Aug-14 14:00N 51°08' W 128°07'12736.2
2017-Aug-14 14:00N 51°00' W 127°54'2 2.6 120 / 81012.0 13.0
2017-Aug-14 13:21N 51°01' W 127°52'514.2
2017-Aug-14 12:59N 50°58' W 127°46'714.8
2017-Aug-14 12:30N 50°53' W 127°37'815.0
2017-Aug-14 12:01N 50°50' W 127°27'714.8
2017-Aug-14 11:31N 50°47' W 127°16'714.8
2017-Aug-14 11:00N 50°44' W 127°05'815.1
2017-Aug-14 10:30N 50°41' W 126°54'612.5
2017-Aug-14 10:00N 50°36' W 126°48'2127.2 280 / 231011.0 5.4 15.0
2017-Aug-14 09:58N 50°36' W 126°45'913.0
2017-Aug-14 09:16N 50°30' W 126°34'415.2
2017-Aug-14 08:59N 50°30' W 126°27'1514.7
2017-Aug-14 08:00N 50°24' W 126°06'2423.7 280 / 231011.0 5.4 15.0
2017-Aug-14 07:00N 50°18' W 125°30'3 4.4 280 / 231011.0 5.4 15.0
2017-Aug-14 06:19N 50°20' W 125°27'412.6
2017-Aug-14 06:00N 50°17' W 125°25'714.7
2017-Aug-14 05:30N 50°10' W 125°22'612.6
2017-Aug-14 05:00N 50°05' W 125°16'613.0
2017-Aug-14 04:30N 49°59' W 125°12'917.1
2017-Aug-14 04:00N 49°53' W 125°02'1121.2
2017-Aug-14 03:31N 49°45' W 124°50'1121.4
2017-Aug-14 03:00N 49°38' W 124°39'1121.4
2017-Aug-14 02:30N 49°29' W 124°29'1020.9
2017-Aug-14 02:01N 49°25' W 124°14'6372.8
2017-Aug-14 02:00N 49°24' W 124°24'1734.9 280 / 231011.0 5.4 15.0
2017-Aug-14 01:31N 49°23' W 123°58'1121.4
2017-Aug-14 01:01N 49°21' W 123°42'917.5
2017-Aug-14 00:31N 49°19' W 123°29'1020.1
2017-Aug-14 00:01N 49°19' W 123°14'510.3
2017-Aug-13 23:30N 49°18' W 123°06'1 1.3
2017-Aug-13 23:00N 49°17' W 123°07'0 0.0
2017-Aug-13 22:30N 49°17' W 123°07'0 0.0
2017-Aug-13 22:00N 49°17' W 123°07'0 0.0
2017-Aug-13 21:30N 49°17' W 123°07'0 0.0
2017-Aug-13 20:59N 49°17' W 123°07'0 0.0
2017-Aug-13 20:29N 49°17' W 123°07'510.7
2017-Aug-13 20:00N 49°12' W 123°06'533.4 060 / 101010.0 18.0 13.0
2017-Aug-13 19:50N 49°17' W 123°07'0 0.0
2017-Aug-13 19:23N 49°17' W 123°07'513.7
2017-Aug-13 19:00N 49°12' W 123°06'5324.0 150 / 31010.0 21.0 13.0
2017-Aug-13 18:59N 49°17' W 123°07'0 0.0
2017-Aug-13 18:28N 49°17' W 123°07'0 0.0
2017-Aug-13 17:58N 49°17' W 123°07'0 0.0
2017-Aug-13 17:30N 49°17' W 123°07'0 0.0
2017-Aug-13 16:58N 49°17' W 123°07'0 0.0
2017-Aug-13 16:27N 49°17' W 123°07'0 0.0
2017-Aug-13 16:00N 49°17' W 123°07'0 0.0
2017-Aug-13 15:27N 49°17' W 123°07'0 0.0
2017-Aug-13 15:00N 49°17' W 123°07'0 0.0
2017-Aug-13 14:30N 49°17' W 123°07'0 0.0
2017-Aug-13 14:00N 49°17' W 123°07'1 1.6
2017-Aug-13 13:30N 49°18' W 123°07'5 9.5
2017-Aug-13 13:00N 49°19' W 123°14'611.5
2017-Aug-13 12:30N 49°19' W 123°23'611.9
2017-Aug-13 12:00N 49°19' W 123°32'5322.5
2017-Aug-13 12:00N 49°18' W 123°24'1123.1 140 / 131007.0 5.4 12.0
2017-Aug-13 11:30N 49°19' W 123°41'612.0
2017-Aug-13 11:00N 49°20' W 123°50'3213.1
2017-Aug-13 11:00N 49°18' W 123°54'5 9.9 160 / 251006.0 16.0 10.0
2017-Aug-13 10:30N 49°22' W 123°59'611.0
2017-Aug-13 10:00N 49°23' W 124°07'611.1
2017-Aug-13 09:30N 49°25' W 124°15'611.2
2017-Aug-13 09:00N 49°27' W 124°23'3175.1
2017-Aug-13 09:00N 49°24' W 124°24'714.8 160 / 251006.0 16.0 10.0
2017-Aug-13 08:30N 49°30' W 124°30'611.4
2017-Aug-13 08:00N 49°34' W 124°36'612.2
2017-Aug-13 07:30N 49°39' W 124°42'611.7
2017-Aug-13 07:00N 49°43' W 124°48'170.3
2017-Aug-13 07:00N 49°42' W 124°48'713.8 160 / 251006.0 16.0 10.0
2017-Aug-13 06:30N 49°47' W 124°54'611.7
2017-Aug-13 06:00N 49°52' W 125°00'5344.7
2017-Aug-13 06:00N 49°48' W 124°54'1123.0 160 / 251006.0 16.0 10.0
2017-Aug-13 05:30N 49°56' W 125°07'611.6
2017-Aug-13 05:00N 50°00' W 125°13'612.6
2017-Aug-13 04:30N 50°06' W 125°17'612.3
2017-Aug-13 04:00N 50°11' W 125°22'917.3
2017-Aug-13 03:30N 50°20' W 125°25'1121.1
2017-Aug-13 03:00N 50°18' W 125°42'3316.8 140 / 161005.0 2.2 13.0
2017-Aug-13 01:03N 50°30' W 126°30'715.8
2017-Aug-13 00:35N 50°32' W 126°41'214.8
2017-Aug-13 00:25N 50°35' W 126°42'817.2
2017-Aug-12 23:57N 50°40' W 126°51'818.2
2017-Aug-12 23:29N 50°44' W 127°03'918.3
2017-Aug-12 23:00N 50°47' W 127°16'9 8.8
2017-Aug-12 22:00N 50°48' W 127°30'1374.7 140 / 301003.0 14.0 18.0
2017-Aug-12 21:49N 50°57' W 127°45'3 9.4
2017-Aug-12 21:30N 50°59' W 127°49'816.2
2017-Aug-12 20:59N 51°04' W 127°59'918.8
2017-Aug-12 20:31N 51°10' W 128°11'918.5
2017-Aug-12 20:00N 51°15' W 128°23'4259.7
2017-Aug-12 20:00N 51°12' W 128°18'1327.5 140 / 301003.0 14.0 18.0
2017-Aug-12 19:31N 51°19' W 128°36'918.5
2017-Aug-12 19:01N 51°25' W 128°47'918.3
2017-Aug-12 18:30N 51°31' W 128°59'917.5
2017-Aug-12 18:01N 51°36' W 129°11'917.6
2017-Aug-12 17:31N 51°41' W 129°22'918.2
2017-Aug-12 17:00N 51°48' W 129°32'6434.9
2017-Aug-12 17:00N 51°42' W 129°30'8521.2 150 / 351002.0 15.0 15.0
2017-Aug-12 13:00N 53°00' W 130°24'3919.4 170 / 381001.0 0.3 11.0
2017-Aug-12 11:00N 53°36' W 130°48'18 9.2 110 / 61008.0 1.1 12.0
2017-Aug-12 09:00N 53°54' W 130°54'8714.6 110 / 61008.0 1.1 12.0
2017-Aug-12 03:00N 55°18' W 131°36'92 6.6 110 / 61008.0 1.1 12.0
2017-Aug-11 13:00N 55°54' W 134°06'2613.0 250 / 131009.0 2.2 11.0
2017-Aug-11 11:00N 56°18' W 134°24'4321.3 180 / 71010.0 16.0 11.0
2017-Aug-11 09:00N 57°00' W 134°12'3417.1 180 / 71010.0 16.0 11.0
2017-Aug-11 07:00N 57°30' W 133°42'1212.4 180 / 71010.0 16.0 11.0
2017-Aug-11 06:00N 57°42' W 133°48'36 7.1 180 / 71010.0 16.0 11.0
2017-Aug-11 01:00N 58°12' W 134°24'0 0.0 300 / 51009.0 5.4 15.0
2017-Aug-10 22:00N 58°12' W 134°24'   130 / 101011.0 24.0 15.0
Track history (hours):
 
Tides and Currents Weather Stations Pressure Air Temp Water Temp Dewpoint Dewpoint Depression Visibility Wind Speed Wind Dir Waves Ship Positions

Celebrity Infinity

Last reported at 2017-Aug-20 20:30 UTC. Time now 2017-Aug-20 20:43 UTC.
Position N 49°17' W 123°07'.

Length 294 m; draft 8.3 m.

Type: Ship. MMSI: 249048000.

Date/timePositionNaut miles runAvg speedWind from/ knotsBaromVisibWave heightAir tempDewpointWater temp
2017-Aug-20 20:30N 49°17' W 123°07'0 0.0
2017-Aug-20 19:59N 49°17' W 123°07'0 0.0
2017-Aug-20 19:26N 49°17' W 123°07'0 0.0
2017-Aug-20 18:59N 49°17' W 123°07'0 0.0
2017-Aug-20 18:26N 49°17' W 123°07'0 0.0
2017-Aug-20 17:56N 49°17' W 123°07'0 0.0
2017-Aug-20 17:25N 49°17' W 123°07'0 0.0
2017-Aug-20 16:55N 49°17' W 123°07'0 0.0
2017-Aug-20 16:28N 49°17' W 123°07'0 0.0
2017-Aug-20 15:52N 49°17' W 123°07'0 0.0
2017-Aug-20 15:31N 49°17' W 123°07'0 0.0
2017-Aug-20 15:00N 49°17' W 123°07'0 0.0
2017-Aug-20 14:30N 49°17' W 123°07'0 0.0
2017-Aug-20 14:00N 49°17' W 123°07'0 0.9
2017-Aug-20 13:30N 49°18' W 123°06'4 8.4
2017-Aug-20 13:00N 49°19' W 123°12'4232.6
2017-Aug-20 13:00N 49°18' W 123°18'4 7.5 130 / 121015.0 5.4 14.0
2017-Aug-20 12:30N 49°19' W 123°23'714.6
2017-Aug-20 12:00N 49°20' W 123°34'815.0
2017-Aug-20 11:30N 49°21' W 123°46'714.5
2017-Aug-20 11:00N 49°22' W 123°57'714.9
2017-Aug-20 10:30N 49°24' W 124°08'815.3
2017-Aug-20 10:00N 49°26' W 124°19'12726.3
2017-Aug-20 10:00N 49°18' W 124°06'1940.2 300 / 131018.0 15.0 11.0
2017-Aug-20 09:30N 49°30' W 124°29'917.6
2017-Aug-20 09:00N 49°37' W 124°38'917.9
2017-Aug-20 08:30N 49°44' W 124°48'917.7
2017-Aug-20 08:01N 49°50' W 124°57'10583.1
2017-Aug-20 08:00N 49°42' W 124°48'1837.1 300 / 131018.0 15.0 11.0
2017-Aug-20 07:30N 49°56' W 125°06'815.1
2017-Aug-20 07:00N 50°02' W 125°13'713.3
2017-Aug-20 06:30N 50°07' W 125°19'612.2
2017-Aug-20 06:00N 50°13' W 125°23'7793.2
2017-Aug-20 06:00N 50°06' W 125°18'1327.5 300 / 131018.0 15.0 11.0
2017-Aug-20 05:30N 50°19' W 125°25'814.5
2017-Aug-20 04:58N 50°22' W 125°36'9 9.2
2017-Aug-20 04:00N 50°18' W 125°48'2628.3 300 / 131018.0 15.0 11.0
2017-Aug-20 03:04N 50°30' W 126°25'343.9
2017-Aug-20 03:00N 50°30' W 126°30'160.8 210 / 51019.0 2.2 14.0
2017-Aug-20 02:58N 50°30' W 126°28'1413.7
2017-Aug-20 01:58N 50°37' W 126°46'918.0
2017-Aug-20 01:30N 50°42' W 126°57'918.8
2017-Aug-20 01:00N 50°45' W 127°11'1020.0
2017-Aug-20 00:30N 50°49' W 127°25'1019.4
2017-Aug-20 00:00N 50°54' W 127°38'815.9
2017-Aug-19 23:30N 50°59' W 127°48'713.7
2017-Aug-19 23:00N 51°03' W 127°57'4261.5
2017-Aug-19 23:00N 51°00' W 128°00'918.0 180 / 91020.0 12.0 10.0
2017-Aug-19 22:30N 51°08' W 128°07'714.8
2017-Aug-19 22:00N 51°12' W 128°16'5303.9
2017-Aug-19 22:00N 51°12' W 128°24'5 9.9 180 / 91020.0 12.0 10.0
2017-Aug-19 21:30N 51°17' W 128°26'815.2
2017-Aug-19 21:00N 51°21' W 128°36'815.1
2017-Aug-19 20:30N 51°25' W 128°46'815.0
2017-Aug-19 20:00N 51°29' W 128°56'815.8
2017-Aug-19 19:30N 51°34' W 129°07'815.9
2017-Aug-19 19:00N 51°39' W 129°17'816.3
2017-Aug-19 18:30N 51°43' W 129°28'815.8
2017-Aug-19 17:59N 51°50' W 129°34'1110.8
2017-Aug-19 17:00N 52°00' W 129°42'9218.3 220 / 151019.0 15.0 15.0
2017-Aug-19 12:00N 53°24' W 130°42'4916.4 220 / 81017.0 5.4 13.0
2017-Aug-19 09:00N 54°12' W 131°00'6911.5 260 / 161016.0 15.0 10.0
2017-Aug-19 03:00N 55°18' W 131°36'0 0.0 090 / 51014.0 5.4 16.0
2017-Aug-18 22:00N 55°18' W 131°36'8512.2 150 / 101013.0 18.0 13.0
2017-Aug-18 15:00N 56°18' W 133°24'37 9.3 220 / 261007.0 5.4 12.0
2017-Aug-18 11:00N 56°24' W 134°30'1818.0 140 / 291002.0 14.0 10.0
2017-Aug-18 10:00N 56°42' W 134°30'4321.3 140 / 291002.0 14.0 10.0
2017-Aug-18 08:00N 57°18' W 133°48'57 8.2 150 / 81000.0 5.4
2017-Aug-18 01:00N 58°12' W 134°24'6 6.0 150 / 81000.0 5.4
2017-Aug-18 00:00N 58°18' W 134°24'6 3.0 180 / 81001.0 2.2 14.0 11.0
2017-Aug-17 22:00N 58°12' W 134°24'6 2.0 210 / 91002.0 14.0 11.0
2017-Aug-17 19:00N 58°18' W 134°24'6 2.0 130 / 81004.0 15.0 11.0
2017-Aug-17 16:00N 58°12' W 134°24'31 5.4 130 / 151005.0 2.2 11.0
2017-Aug-17 10:10N 58°12' W 135°24'617.1
2017-Aug-17 09:49N 58°15' W 135°33'617.5
2017-Aug-17 09:30N 58°17' W 135°42'816.7
2017-Aug-17 09:00N 58°19' W 135°58'815.2
2017-Aug-17 08:30N 58°19' W 136°12'2516.8
2017-Aug-17 07:00N 58°06' W 136°54'4715.8 240 / 171005.0 5.4 11.0
2017-Aug-17 04:00N 58°30' W 138°12'5614.1 240 / 171005.0 5.4 11.0
2017-Aug-17 00:00N 59°06' W 139°36'3115.7 100 / 91004.0 14.0 12.0
2017-Aug-16 22:00N 59°36' W 139°54'22 5.4 100 / 91004.0 14.0 12.0
2017-Aug-16 18:00N 59°54' W 139°30'4816.0 360 / 51002.0 11.0 10.0
2017-Aug-16 15:00N 59°06' W 139°30'5814.6 260 / 81000.0 5.4 12.0
2017-Aug-16 11:00N 58°24' W 138°12'2423.9 130 / 20996.0 15.0 14.0
2017-Aug-16 10:00N 58°06' W 137°42'7719.2 130 / 20996.0 15.0 14.0
2017-Aug-16 06:00N 57°06' W 136°12'29 7.3 130 / 20996.0 15.0 14.0
2017-Aug-16 02:00N 57°06' W 135°18'0 0.0 140 / 10996.0 2.2 11.0
2017-Aug-15 23:00N 57°06' W 135°18'9 1.5 360 / 6999.0 14.0 16.0
2017-Aug-15 17:00N 57°00' W 135°30'8113.6 130 / 111003.0 5.4 14.0
2017-Aug-15 11:00N 55°42' W 134°48'3819.2 110 / 81012.0 14.0 2.0
2017-Aug-15 09:00N 55°12' W 134°06'3919.6 110 / 81012.0 14.0 2.0
2017-Aug-15 07:00N 54°48' W 133°12'14616.3 110 / 81012.0 14.0 2.0
2017-Aug-14 22:00N 53°00' W 130°24'6217.9 110 / 81012.0 14.0 2.0
2017-Aug-14 18:30N 52°03' W 129°43'1118.5
2017-Aug-14 17:56N 51°53' W 129°36'818.3
2017-Aug-14 17:30N 51°46' W 129°30'917.9
2017-Aug-14 17:00N 51°40' W 129°20'918.6
2017-Aug-14 16:30N 51°35' W 129°08'918.6
2017-Aug-14 16:00N 51°29' W 128°56'918.4
2017-Aug-14 15:30N 51°24' W 128°43'918.1
2017-Aug-14 15:00N 51°19' W 128°32'918.4
2017-Aug-14 14:30N 51°14' W 128°20'918.5
2017-Aug-14 14:00N 51°08' W 128°07'12736.2
2017-Aug-14 14:00N 51°00' W 127°54'2 2.6 120 / 81012.0 13.0
2017-Aug-14 13:21N 51°01' W 127°52'514.2
2017-Aug-14 12:59N 50°58' W 127°46'714.8
2017-Aug-14 12:30N 50°53' W 127°37'815.0
2017-Aug-14 12:01N 50°50' W 127°27'714.8
2017-Aug-14 11:31N 50°47' W 127°16'714.8
2017-Aug-14 11:00N 50°44' W 127°05'815.1
2017-Aug-14 10:30N 50°41' W 126°54'612.5
2017-Aug-14 10:00N 50°36' W 126°48'2127.2 280 / 231011.0 5.4 15.0
2017-Aug-14 09:58N 50°36' W 126°45'913.0
2017-Aug-14 09:16N 50°30' W 126°34'415.2
2017-Aug-14 08:59N 50°30' W 126°27'1514.7
2017-Aug-14 08:00N 50°24' W 126°06'2423.7 280 / 231011.0 5.4 15.0
2017-Aug-14 07:00N 50°18' W 125°30'3 4.4 280 / 231011.0 5.4 15.0
2017-Aug-14 06:19N 50°20' W 125°27'412.6
2017-Aug-14 06:00N 50°17' W 125°25'714.7
2017-Aug-14 05:30N 50°10' W 125°22'612.6
2017-Aug-14 05:00N 50°05' W 125°16'613.0
2017-Aug-14 04:30N 49°59' W 125°12'917.1
2017-Aug-14 04:00N 49°53' W 125°02'1121.2
2017-Aug-14 03:31N 49°45' W 124°50'1121.4
2017-Aug-14 03:00N 49°38' W 124°39'1121.4
2017-Aug-14 02:30N 49°29' W 124°29'1020.9
2017-Aug-14 02:01N 49°25' W 124°14'6372.8
2017-Aug-14 02:00N 49°24' W 124°24'1734.9 280 / 231011.0 5.4 15.0
2017-Aug-14 01:31N 49°23' W 123°58'1121.4
2017-Aug-14 01:01N 49°21' W 123°42'917.5
2017-Aug-14 00:31N 49°19' W 123°29'1020.1
2017-Aug-14 00:01N 49°19' W 123°14'510.3
2017-Aug-13 23:30N 49°18' W 123°06'1 1.3
2017-Aug-13 23:00N 49°17' W 123°07'0 0.0
2017-Aug-13 22:30N 49°17' W 123°07'0 0.0
2017-Aug-13 22:00N 49°17' W 123°07'0 0.0
2017-Aug-13 21:30N 49°17' W 123°07'0 0.0
2017-Aug-13 20:59N 49°17' W 123°07'0 0.0
2017-Aug-13 20:29N 49°17' W 123°07'510.7
2017-Aug-13 20:00N 49°12' W 123°06'533.4 060 / 101010.0 18.0 13.0
2017-Aug-13 19:50N 49°17' W 123°07'0 0.0
2017-Aug-13 19:23N 49°17' W 123°07'513.7
2017-Aug-13 19:00N 49°12' W 123°06'5324.0 150 / 31010.0 21.0 13.0
2017-Aug-13 18:59N 49°17' W 123°07'0 0.0
2017-Aug-13 18:28N 49°17' W 123°07'0 0.0
2017-Aug-13 17:58N 49°17' W 123°07'0 0.0
2017-Aug-13 17:30N 49°17' W 123°07'0 0.0
2017-Aug-13 16:58N 49°17' W 123°07'0 0.0
2017-Aug-13 16:27N 49°17' W 123°07'0 0.0
2017-Aug-13 16:00N 49°17' W 123°07'0 0.0
2017-Aug-13 15:27N 49°17' W 123°07'0 0.0
2017-Aug-13 15:00N 49°17' W 123°07'0 0.0
2017-Aug-13 14:30N 49°17' W 123°07'0 0.0
2017-Aug-13 14:00N 49°17' W 123°07'1 1.6
2017-Aug-13 13:30N 49°18' W 123°07'5 9.5
2017-Aug-13 13:00N 49°19' W 123°14'611.5
2017-Aug-13 12:30N 49°19' W 123°23'611.9
2017-Aug-13 12:00N 49°19' W 123°32'5322.5
2017-Aug-13 12:00N 49°18' W 123°24'1123.1 140 / 131007.0 5.4 12.0
2017-Aug-13 11:30N 49°19' W 123°41'612.0
2017-Aug-13 11:00N 49°20' W 123°50'3213.1
2017-Aug-13 11:00N 49°18' W 123°54'5 9.9 160 / 251006.0 16.0 10.0
2017-Aug-13 10:30N 49°22' W 123°59'611.0
2017-Aug-13 10:00N 49°23' W 124°07'611.1
2017-Aug-13 09:30N 49°25' W 124°15'611.2
2017-Aug-13 09:00N 49°27' W 124°23'3175.1
2017-Aug-13 09:00N 49°24' W 124°24'714.8 160 / 251006.0 16.0 10.0
2017-Aug-13 08:30N 49°30' W 124°30'611.4
2017-Aug-13 08:00N 49°34' W 124°36'612.2
2017-Aug-13 07:30N 49°39' W 124°42'611.7
2017-Aug-13 07:00N 49°43' W 124°48'170.3
2017-Aug-13 07:00N 49°42' W 124°48'713.8 160 / 251006.0 16.0 10.0
2017-Aug-13 06:30N 49°47' W 124°54'611.7
2017-Aug-13 06:00N 49°52' W 125°00'5344.7
2017-Aug-13 06:00N 49°48' W 124°54'1123.0 160 / 251006.0 16.0 10.0
2017-Aug-13 05:30N 49°56' W 125°07'611.6
2017-Aug-13 05:00N 50°00' W 125°13'612.6
2017-Aug-13 04:30N 50°06' W 125°17'612.3
2017-Aug-13 04:00N 50°11' W 125°22'917.3
2017-Aug-13 03:30N 50°20' W 125°25'1121.1
2017-Aug-13 03:00N 50°18' W 125°42'3316.8 140 / 161005.0 2.2 13.0
2017-Aug-13 01:03N 50°30' W 126°30'715.8
2017-Aug-13 00:35N 50°32' W 126°41'214.8
2017-Aug-13 00:25N 50°35' W 126°42'817.2
2017-Aug-12 23:57N 50°40' W 126°51'818.2
2017-Aug-12 23:29N 50°44' W 127°03'918.3
2017-Aug-12 23:00N 50°47' W 127°16'9 8.8
2017-Aug-12 22:00N 50°48' W 127°30'1374.7 140 / 301003.0 14.0 18.0
2017-Aug-12 21:49N 50°57' W 127°45'3 9.4
2017-Aug-12 21:30N 50°59' W 127°49'816.2
2017-Aug-12 20:59N 51°04' W 127°59'918.8
2017-Aug-12 20:31N 51°10' W 128°11'918.5
2017-Aug-12 20:00N 51°15' W 128°23'4259.7
2017-Aug-12 20:00N 51°12' W 128°18'1327.5 140 / 301003.0 14.0 18.0
2017-Aug-12 19:31N 51°19' W 128°36'918.5
2017-Aug-12 19:01N 51°25' W 128°47'918.3
2017-Aug-12 18:30N 51°31' W 128°59'917.5
2017-Aug-12 18:01N 51°36' W 129°11'917.6
2017-Aug-12 17:31N 51°41' W 129°22'918.2
2017-Aug-12 17:00N 51°48' W 129°32'6434.9
2017-Aug-12 17:00N 51°42' W 129°30'8521.2 150 / 351002.0 15.0 15.0
2017-Aug-12 13:00N 53°00' W 130°24'3919.4 170 / 381001.0 0.3 11.0
2017-Aug-12 11:00N 53°36' W 130°48'18 9.2 110 / 61008.0 1.1 12.0
2017-Aug-12 09:00N 53°54' W 130°54'8714.6 110 / 61008.0 1.1 12.0
2017-Aug-12 03:00N 55°18' W 131°36'92 6.6 110 / 61008.0 1.1 12.0
2017-Aug-11 13:00N 55°54' W 134°06'2613.0 250 / 131009.0 2.2 11.0
2017-Aug-11 11:00N 56°18' W 134°24'4321.3 180 / 71010.0 16.0 11.0
2017-Aug-11 09:00N 57°00' W 134°12'3417.1 180 / 71010.0 16.0 11.0
2017-Aug-11 07:00N 57°30' W 133°42'1212.4 180 / 71010.0 16.0 11.0
2017-Aug-11 06:00N 57°42' W 133°48'36 7.1 180 / 71010.0 16.0 11.0
2017-Aug-11 01:00N 58°12' W 134°24'0 0.0 300 / 51009.0 5.4 15.0
2017-Aug-10 22:00N 58°12' W 134°24'   130 / 101011.0 24.0 15.0

Dump ship's entire track history